Aviation Digital Data Service (ADDS)

Output produced by METARs form (0147 UTC 18 October 2017)
found at http://www.aviationweather.gov/adds/metars/
 
Forecast for: KGRK (GRAY/FT HOOD , TX, US)
Text: TAF KGRK 180000Z 1800/1906 VRB06KT 9999 SKC QNH3015INS
Forecast period: 0000 to 1400 UTC 18 October 2017
Forecast type: FROM: standard forecast or significant change
Winds: variable direction winds at 7 MPH (6 knots; 3.1 m/s)
Visibility: 6 or more miles (10+ km)
Clouds: clear skies
Weather: no significant weather forecast for this period
Text: BECMG 1814/1815 17009KT 9999 SKC QNH3008INS TX25/1820Z TN08/1811Z
Forecast period: 1400 UTC 18 October 2017 to 0600 UTC 19 October 2017
Forecast type: BECOMING: Conditions expected to become as follows by 1500 UTC 18 October 2017
Winds: from the S (170 degrees) at 10 MPH (9 knots; 4.7 m/s)
Visibility: 6 or more miles (10+ km)
Clouds: clear skies
Weather: no significant weather forecast for this period

Forecast for: KACT (WACO , TX, US)
Text: KACT 172320Z 1800/1824 15006KT P6SM SKC
Forecast period: 0000 UTC 18 October 2017 to 0000 UTC 19 October 2017
Forecast type: FROM: standard forecast or significant change
Winds: from the SSE (150 degrees) at 7 MPH (6 knots; 3.1 m/s)
Visibility: 6 or more miles (10+ km)
Clouds: clear skies
Weather: no significant weather forecast for this period